createdAt,value
2022-10-20T00:01:11.853Z,6.82
2022-10-20T00:03:38.899Z,9.65
2022-10-20T00:06:10.007Z,8.60
2022-10-20T00:08:37.616Z,5.55
2022-10-20T00:11:04.921Z,8.23
2022-10-20T00:13:32.264Z,9.60
2022-10-20T00:16:00.247Z,10.93
2022-10-20T00:18:27.927Z,11.02
2022-10-20T00:20:55.344Z,9.25
2022-10-20T00:23:22.864Z,11.82
2022-10-20T00:25:49.823Z,10.90
2022-10-20T00:28:16.675Z,15.57
2022-10-20T00:30:43.528Z,10.52
2022-10-20T00:33:10.415Z,10.60
2022-10-20T00:35:38.949Z,10.48
2022-10-20T00:38:06.059Z,9.23
2022-10-20T00:40:33.031Z,10.88
2022-10-20T00:42:59.891Z,6.30
2022-10-20T00:45:27.790Z,9.02
2022-10-20T00:47:58.918Z,8.60
2022-10-20T00:50:31.743Z,7.22
2022-10-20T00:53:01.571Z,10.98
2022-10-20T00:55:34.029Z,7.57
2022-10-20T00:58:02.235Z,12.48
2022-10-20T01:00:30.544Z,8.30
2022-10-20T01:03:00.890Z,12.25
2022-10-20T01:05:27.969Z,9.82
2022-10-20T01:07:55.040Z,14.07
2022-10-20T01:10:25.280Z,10.82
2022-10-20T01:13:01.128Z,9.43
2022-10-20T01:15:42.918Z,9.60
2022-10-20T01:18:13.315Z,7.68
2022-10-20T01:20:52.211Z,10.77
2022-10-20T01:23:18.978Z,12.30
2022-10-20T01:26:13.800Z,11.77
2022-10-20T01:29:04.811Z,14.18
2022-10-20T01:31:56.609Z,11.80
2022-10-20T01:34:30.288Z,9.80
2022-10-20T01:37:34.459Z,10.00
2022-10-20T01:40:36.688Z,11.60
2022-10-20T01:43:07.590Z,18.23
2022-10-20T01:45:37.183Z,10.10
2022-10-20T01:48:07.190Z,10.90
2022-10-20T01:50:35.744Z,14.73
2022-10-20T01:53:02.731Z,12.95
2022-10-20T01:55:30.273Z,11.37
2022-10-20T01:58:21.163Z,14.27
2022-10-20T02:00:51.574Z,11.75
2022-10-20T02:04:09.526Z,11.32
2022-10-20T02:07:30.421Z,14.23
2022-10-20T02:10:09.677Z,13.32
2022-10-20T02:12:41.386Z,13.38
2022-10-20T02:15:12.372Z,13.25
2022-10-20T02:17:41.999Z,10.82
2022-10-20T02:20:10.548Z,12.63
2022-10-20T02:22:38.864Z,11.90
2022-10-20T02:25:07.068Z,13.60
2022-10-20T02:27:37.280Z,12.07
2022-10-20T02:30:06.423Z,14.63
2022-10-20T02:32:35.685Z,15.48
2022-10-20T02:35:09.827Z,10.57
2022-10-20T02:37:36.904Z,14.93
2022-10-20T02:40:04.380Z,12.82
2022-10-20T02:42:31.318Z,14.52
2022-10-20T02:44:58.138Z,15.97
2022-10-20T02:47:24.982Z,14.15
2022-10-20T02:49:51.825Z,15.05
2022-10-20T02:52:18.656Z,15.65
2022-10-20T02:54:45.533Z,15.10
2022-10-20T02:57:12.289Z,16.67
2022-10-20T02:59:39.141Z,16.48
2022-10-20T03:02:06.086Z,17.33
2022-10-20T03:04:33.022Z,15.37
2022-10-20T03:06:59.864Z,15.55
2022-10-20T03:09:26.884Z,16.20
2022-10-20T03:11:53.831Z,14.77
2022-10-20T03:14:20.635Z,18.17
2022-10-20T03:16:47.470Z,23.48
2022-10-20T03:19:14.405Z,19.75
2022-10-20T03:21:41.321Z,15.75
2022-10-20T03:24:08.099Z,15.60
2022-10-20T03:26:34.954Z,17.92
2022-10-20T03:29:01.855Z,17.38
2022-10-20T03:31:28.925Z,20.65
2022-10-20T03:33:55.719Z,18.43
2022-10-20T03:36:23.131Z,16.17
2022-10-20T03:38:49.964Z,14.95
2022-10-20T03:41:16.912Z,15.07
2022-10-20T03:43:43.751Z,17.77
2022-10-20T03:46:11.718Z,14.23
2022-10-20T03:48:39.769Z,16.77
2022-10-20T03:51:08.392Z,17.48
2022-10-20T03:53:35.755Z,17.73
2022-10-20T03:56:07.339Z,13.05
2022-10-20T03:58:34.425Z,16.13
2022-10-20T04:01:01.833Z,17.65
2022-10-20T04:03:28.653Z,16.60
2022-10-20T04:05:55.446Z,13.75
2022-10-20T04:08:22.294Z,18.33
2022-10-20T04:10:49.167Z,14.68
2022-10-20T04:13:16.091Z,19.25
2022-10-20T04:15:42.933Z,14.70
2022-10-20T04:18:09.779Z,16.02
2022-10-20T04:20:38.317Z,13.40
2022-10-20T04:23:07.559Z,14.82
2022-10-20T04:25:34.465Z,16.38
2022-10-20T04:28:01.308Z,14.45
2022-10-20T04:30:28.136Z,19.33
2022-10-20T04:32:54.984Z,14.90
2022-10-20T04:35:21.866Z,17.65
2022-10-20T04:37:48.715Z,19.17
2022-10-20T04:40:15.634Z,13.60
2022-10-20T04:42:42.507Z,17.50
2022-10-20T04:45:09.842Z,15.40
2022-10-20T04:47:37.735Z,16.77
2022-10-20T04:50:05.991Z,17.52
2022-10-20T04:52:33.016Z,15.55
2022-10-20T04:54:59.956Z,15.70
2022-10-20T04:57:27.005Z,16.73
2022-10-20T04:59:53.864Z,19.67
2022-10-20T05:02:20.708Z,17.07
2022-10-20T05:04:47.594Z,16.95
2022-10-20T05:07:14.490Z,16.55
2022-10-20T05:09:41.429Z,18.27
2022-10-20T05:12:08.455Z,16.48
2022-10-20T05:14:35.408Z,13.93
2022-10-20T05:17:04.214Z,17.60
2022-10-20T05:19:33.387Z,17.55
2022-10-20T05:22:00.222Z,18.38
2022-10-20T05:24:29.931Z,17.67
2022-10-20T05:26:57.200Z,13.75
2022-10-20T05:29:24.044Z,16.33
2022-10-20T05:31:50.943Z,15.05
2022-10-20T05:34:17.770Z,15.15
2022-10-20T05:36:44.650Z,20.88
2022-10-20T05:39:12.025Z,18.17
2022-10-20T05:41:39.427Z,18.88
2022-10-20T05:44:08.825Z,16.45
2022-10-20T05:46:42.852Z,15.90
2022-10-20T05:49:17.446Z,16.75
2022-10-20T05:51:45.662Z,17.30
2022-10-20T05:54:13.604Z,15.90
2022-10-20T05:56:40.868Z,17.27
2022-10-20T05:59:08.000Z,16.67
2022-10-20T06:01:48.362Z,17.75
2022-10-20T06:04:23.774Z,19.27
2022-10-20T06:06:52.227Z,17.77
2022-10-20T06:09:19.878Z,17.10
2022-10-20T06:11:47.437Z,14.48
2022-10-20T06:14:14.486Z,19.17
2022-10-20T06:16:41.301Z,16.27
2022-10-20T06:19:08.196Z,15.23
2022-10-20T06:21:37.598Z,14.77
2022-10-20T06:24:06.214Z,18.42
2022-10-20T06:26:36.646Z,17.95
2022-10-20T06:29:08.581Z,22.57
2022-10-20T06:31:41.530Z,19.70
2022-10-20T06:34:12.756Z,22.33
2022-10-20T06:36:41.918Z,15.00
2022-10-20T06:39:12.963Z,17.08
2022-10-20T06:41:40.216Z,21.08
2022-10-20T06:44:18.878Z,17.50
2022-10-20T06:46:45.767Z,21.90
2022-10-20T06:49:13.320Z,16.27
2022-10-20T06:51:40.441Z,16.63
2022-10-20T06:54:07.414Z,18.20
2022-10-20T06:56:35.814Z,19.17
2022-10-20T06:59:03.663Z,23.90
2022-10-20T07:01:33.090Z,17.35
2022-10-20T07:04:06.125Z,22.85
2022-10-20T07:06:38.930Z,18.98
2022-10-20T07:09:08.391Z,16.52
2022-10-20T07:11:36.104Z,17.00
2022-10-20T07:14:03.596Z,17.20
2022-10-20T07:16:32.710Z,21.92
2022-10-20T07:19:00.337Z,21.55
2022-10-20T07:21:32.462Z,17.02
2022-10-20T07:24:04.169Z,15.35
2022-10-20T07:26:34.749Z,16.77
2022-10-20T07:29:02.956Z,15.55
2022-10-20T07:31:33.007Z,15.40
2022-10-20T07:34:13.645Z,17.55
2022-10-20T07:36:50.064Z,22.27
2022-10-20T07:39:16.963Z,20.37
2022-10-20T07:41:48.031Z,20.08
2022-10-20T07:44:16.080Z,18.35
2022-10-20T07:46:42.971Z,20.38
2022-10-20T07:51:56.970Z,17.75
2022-10-20T07:54:23.892Z,17.30
2022-10-20T07:56:50.850Z,24.48
2022-10-20T07:59:17.834Z,21.40
2022-10-20T08:01:44.871Z,20.40
2022-10-20T08:04:12.147Z,21.77
2022-10-20T08:06:39.604Z,21.50
2022-10-20T08:09:07.378Z,20.10
2022-10-20T08:11:34.884Z,19.70
2022-10-20T08:14:01.719Z,19.05
2022-10-20T08:16:39.081Z,19.05
2022-10-20T08:21:49.817Z,18.40
2022-10-20T08:24:16.687Z,18.02
2022-10-20T08:26:43.623Z,18.58
2022-10-20T08:29:12.221Z,17.70
2022-10-20T08:31:39.713Z,16.13
2022-10-20T08:34:08.062Z,18.10
2022-10-20T08:36:37.119Z,19.70
2022-10-20T08:39:06.184Z,19.00
2022-10-20T08:42:07.658Z,19.23
2022-10-20T08:44:30.593Z,17.15
2022-10-20T08:47:01.353Z,17.10
2022-10-20T08:49:32.174Z,16.60
2022-10-20T08:51:59.830Z,20.73
2022-10-20T08:54:26.820Z,18.27
2022-10-20T08:56:53.641Z,16.42
2022-10-20T08:59:33.287Z,16.30
2022-10-20T09:02:00.645Z,17.58
2022-10-20T09:04:35.089Z,18.98
2022-10-20T09:07:10.718Z,21.02
2022-10-20T09:09:37.791Z,18.33
2022-10-20T09:12:07.138Z,19.67
2022-10-20T09:14:37.058Z,20.20
2022-10-20T09:17:07.927Z,24.30
2022-10-20T09:19:36.526Z,18.50
2022-10-20T09:22:06.677Z,18.92
2022-10-20T09:24:35.899Z,17.42
2022-10-20T09:27:21.447Z,19.25
2022-10-20T09:29:48.337Z,21.38
2022-10-20T09:32:51.159Z,19.85
2022-10-20T09:35:19.954Z,18.02
2022-10-20T09:38:09.765Z,16.80
2022-10-20T09:40:43.937Z,20.95
2022-10-20T09:43:16.714Z,19.65
2022-10-20T09:45:54.679Z,21.23
2022-10-20T09:48:31.532Z,21.15
2022-10-20T09:51:00.290Z,19.35
2022-10-20T09:53:36.054Z,18.58
2022-10-20T09:56:03.622Z,20.27
2022-10-20T09:58:33.694Z,20.38
2022-10-20T10:01:06.028Z,22.05
2022-10-20T10:03:45.984Z,21.30
2022-10-20T10:06:33.180Z,17.90
2022-10-20T10:09:02.039Z,21.00
2022-10-20T10:11:36.768Z,18.92
2022-10-20T10:14:04.935Z,22.02
2022-10-20T10:16:42.716Z,17.48
2022-10-20T10:19:19.245Z,18.40
2022-10-20T10:21:58.281Z,25.38
2022-10-20T10:24:43.716Z,24.43
2022-10-20T10:27:29.822Z,31.38
2022-10-20T10:30:24.323Z,24.48
2022-10-20T10:32:51.138Z,28.38
2022-10-20T10:35:38.103Z,28.80
2022-10-20T10:38:05.033Z,45.85
2022-10-20T10:40:45.338Z,37.78
2022-10-20T10:43:22.270Z,33.60
2022-10-20T10:45:57.094Z,39.30
2022-10-20T10:49:21.299Z,27.85
2022-10-20T10:52:04.610Z,26.23
2022-10-20T10:54:39.358Z,28.67
2022-10-20T10:57:18.226Z,26.75
2022-10-20T10:59:48.497Z,27.63
2022-10-20T11:02:24.736Z,27.33
2022-10-20T11:04:54.351Z,29.20
2022-10-20T11:07:36.667Z,23.30
2022-10-20T11:10:18.211Z,25.48
2022-10-20T11:13:12.725Z,27.52
2022-10-20T11:15:50.371Z,27.58
2022-10-20T11:18:44.403Z,28.50
2022-10-20T11:21:35.935Z,27.98
2022-10-20T11:24:32.381Z,26.25
2022-10-20T11:27:08.150Z,31.63
2022-10-20T11:29:43.624Z,26.55
2022-10-20T11:32:44.041Z,31.88
2022-10-20T11:35:28.445Z,32.75
2022-10-20T11:38:13.203Z,33.05
2022-10-20T11:40:42.948Z,34.43
2022-10-20T11:43:36.881Z,32.20
2022-10-20T11:46:09.494Z,37.13
2022-10-20T11:48:40.365Z,34.58
2022-10-20T11:51:31.085Z,35.60
2022-10-20T11:54:33.182Z,38.78
2022-10-20T11:57:11.589Z,38.60
2022-10-20T11:59:50.164Z,38.13
2022-10-20T12:02:29.499Z,38.57
2022-10-20T12:05:11.405Z,39.77
2022-10-20T12:08:24.537Z,43.85
2022-10-20T12:11:04.377Z,43.72
2022-10-20T12:13:48.230Z,44.58
2022-10-20T12:16:58.365Z,49.50
2022-10-20T12:19:30.760Z,49.40
2022-10-20T12:22:05.563Z,43.30
2022-10-20T12:24:35.407Z,49.90
2022-10-20T12:27:08.779Z,44.80
2022-10-20T12:29:35.764Z,44.63
2022-10-20T12:32:21.435Z,51.65
2022-10-20T12:34:55.065Z,45.38
2022-10-20T12:37:24.849Z,56.45
2022-10-20T12:40:11.599Z,51.93
2022-10-20T12:42:46.004Z,55.28
2022-10-20T12:45:19.161Z,53.33
2022-10-20T12:48:20.759Z,51.53
2022-10-20T12:50:49.926Z,55.38
2022-10-20T12:53:26.733Z,51.40
2022-10-20T12:56:09.015Z,52.05
2022-10-20T12:58:59.765Z,52.00
2022-10-20T13:01:28.500Z,51.25
2022-10-20T13:03:55.328Z,47.47
2022-10-20T13:06:27.144Z,51.60
2022-10-20T13:09:03.481Z,48.20
2022-10-20T13:11:39.437Z,60.45
2022-10-20T13:14:12.057Z,48.80
2022-10-20T13:16:51.898Z,41.33
2022-10-20T13:19:30.445Z,41.85
2022-10-20T13:21:57.820Z,46.22
2022-10-20T13:24:32.606Z,41.35
2022-10-20T13:27:04.191Z,45.03
2022-10-20T13:29:39.669Z,44.13
2022-10-20T13:32:23.974Z,42.70
2022-10-20T13:35:02.438Z,47.00
2022-10-20T13:37:41.313Z,40.53
2022-10-20T13:40:18.861Z,45.22
2022-10-20T13:43:18.732Z,39.93
2022-10-20T13:46:07.739Z,41.70
2022-10-20T13:48:40.706Z,40.20
2022-10-20T13:51:19.796Z,40.35
2022-10-20T13:53:51.654Z,40.88
2022-10-20T13:56:30.661Z,40.00
2022-10-20T13:59:05.648Z,35.92
2022-10-20T14:01:35.917Z,41.45
2022-10-20T14:04:02.817Z,41.65
2022-10-20T14:06:36.269Z,33.30
2022-10-20T14:09:22.012Z,34.35
2022-10-20T14:11:58.526Z,38.85
2022-10-20T14:14:27.427Z,33.00
2022-10-20T14:17:06.555Z,30.65
2022-10-20T14:19:34.330Z,32.67
2022-10-20T14:22:21.344Z,33.80
2022-10-20T14:24:54.658Z,37.13
2022-10-20T14:27:25.835Z,31.55
2022-10-20T14:29:53.959Z,35.17
2022-10-20T14:32:27.122Z,27.38
2022-10-20T14:35:00.104Z,28.50
2022-10-20T14:37:37.188Z,32.80
2022-10-20T14:40:08.575Z,31.77
2022-10-20T14:42:36.266Z,29.80
2022-10-20T14:45:04.505Z,29.33
2022-10-20T14:47:40.145Z,29.13
2022-10-20T14:50:07.856Z,31.13
2022-10-20T14:52:38.785Z,28.02
2022-10-20T14:55:41.470Z,28.40
2022-10-20T14:58:53.119Z,27.27
2022-10-20T15:01:29.130Z,28.70
2022-10-20T15:04:16.452Z,28.55
2022-10-20T15:06:44.229Z,30.48
2022-10-20T15:09:32.767Z,35.30
2022-10-20T15:12:05.573Z,27.77
2022-10-20T15:14:32.525Z,32.80
2022-10-20T15:16:59.361Z,34.15
2022-10-20T15:19:35.170Z,40.80
2022-10-20T15:24:40.511Z,55.95
2022-10-20T15:27:15.710Z,31.55
2022-10-20T15:29:51.770Z,34.27
2022-10-20T15:32:18.913Z,34.88
2022-10-20T15:34:45.914Z,34.03
2022-10-20T15:37:12.864Z,39.25
2022-10-20T15:39:39.740Z,35.78
2022-10-20T15:42:11.279Z,39.90
2022-10-20T15:44:38.474Z,41.53
2022-10-20T15:47:05.285Z,38.33
2022-10-20T15:49:32.422Z,40.58
2022-10-20T15:51:59.278Z,42.15
2022-10-20T15:54:26.266Z,39.65
2022-10-20T15:56:53.103Z,40.90
2022-10-20T15:59:19.936Z,38.50
2022-10-20T16:01:46.895Z,37.28
2022-10-20T16:04:30.210Z,38.28
2022-10-20T16:06:58.987Z,38.15
2022-10-20T16:09:28.906Z,41.43
2022-10-20T16:11:55.881Z,40.28
2022-10-20T16:14:22.718Z,42.55
2022-10-20T16:16:49.675Z,42.85
2022-10-20T16:19:16.917Z,49.15
2022-10-20T16:21:44.205Z,49.42
2022-10-20T16:24:11.497Z,53.50
2022-10-20T16:26:38.476Z,47.75
2022-10-20T16:29:05.358Z,48.60
2022-10-20T16:31:32.696Z,53.77
2022-10-20T16:34:00.619Z,48.03
2022-10-20T16:36:27.631Z,52.90
2022-10-20T16:38:56.396Z,51.35
2022-10-20T16:41:23.575Z,52.95
2022-10-20T16:43:50.428Z,47.08
2022-10-20T16:46:17.685Z,48.13
2022-10-20T16:48:47.625Z,57.78
2022-10-20T16:51:15.902Z,47.50
2022-10-20T16:53:43.288Z,43.00
2022-10-20T16:56:10.639Z,46.00
2022-10-20T16:58:37.704Z,47.43
2022-10-20T17:01:11.249Z,45.58
2022-10-20T17:06:11.414Z,47.75
2022-10-20T17:08:39.607Z,48.47
2022-10-20T17:11:12.961Z,45.17
2022-10-20T17:13:40.634Z,43.20
2022-10-20T17:16:17.867Z,40.47
2022-10-20T17:18:45.213Z,40.72
2022-10-20T17:21:13.595Z,44.60
2022-10-20T17:23:43.150Z,41.15
2022-10-20T17:26:14.638Z,42.25
2022-10-20T17:28:42.559Z,40.33
2022-10-20T17:31:12.233Z,42.08
2022-10-20T17:33:40.075Z,44.58
2022-10-20T17:36:07.616Z,42.72
2022-10-20T17:38:35.297Z,47.90
2022-10-20T17:41:11.305Z,40.85
2022-10-20T17:43:38.456Z,44.17
2022-10-20T17:46:13.500Z,44.70
2022-10-20T17:48:40.560Z,43.30
2022-10-20T17:51:12.979Z,42.65
2022-10-20T17:53:43.497Z,45.20
2022-10-20T17:56:13.902Z,41.08
2022-10-20T17:58:42.984Z,41.13
2022-10-20T18:01:11.350Z,41.20
2022-10-20T18:03:38.869Z,43.17
2022-10-20T18:06:19.988Z,40.20
2022-10-20T18:08:47.844Z,38.10
2022-10-20T18:11:20.433Z,36.90
2022-10-20T18:13:47.784Z,38.47
2022-10-20T18:16:17.851Z,36.63
2022-10-20T18:18:45.270Z,31.85
2022-10-20T18:21:13.825Z,30.73
2022-10-20T18:23:45.777Z,30.02
2022-10-20T18:26:14.453Z,33.17
2022-10-20T18:28:44.468Z,30.98
2022-10-20T18:31:18.054Z,32.37
2022-10-20T18:33:45.816Z,30.67
2022-10-20T18:36:14.894Z,31.13
2022-10-20T18:38:43.698Z,33.42
2022-10-20T18:41:13.820Z,34.88
2022-10-20T18:43:41.182Z,28.13
2022-10-20T18:46:10.163Z,29.42
2022-10-20T18:48:38.762Z,37.40
2022-10-20T18:51:07.813Z,32.67
2022-10-20T18:53:36.048Z,32.28
2022-10-20T18:56:08.788Z,34.83
2022-10-20T18:58:38.384Z,30.42
2022-10-20T19:01:08.357Z,30.77
2022-10-20T19:03:35.670Z,31.05
2022-10-20T19:06:04.671Z,34.47
2022-10-20T19:08:31.610Z,27.73
2022-10-20T19:10:58.494Z,33.08
2022-10-20T19:13:26.931Z,32.33
2022-10-20T19:15:55.316Z,34.70
2022-10-20T19:18:23.817Z,30.20
2022-10-20T19:20:58.662Z,33.03
2022-10-20T19:23:26.481Z,30.83
2022-10-20T19:26:07.580Z,35.35
2022-10-20T19:28:39.740Z,30.20
2022-10-20T19:31:20.642Z,32.08
2022-10-20T19:33:50.789Z,34.70
2022-10-20T19:36:18.509Z,30.73
2022-10-20T19:38:45.786Z,30.83
2022-10-20T19:41:13.161Z,31.23
2022-10-20T19:43:40.177Z,30.58
2022-10-20T19:46:08.887Z,26.58
2022-10-20T19:48:36.113Z,30.42
2022-10-20T19:51:03.199Z,34.03
2022-10-20T19:53:30.304Z,29.80
2022-10-20T19:55:57.208Z,32.07
2022-10-20T19:58:24.118Z,31.95
2022-10-20T20:00:56.169Z,32.60
2022-10-20T20:03:23.688Z,29.65
2022-10-20T20:06:06.015Z,26.75
2022-10-20T20:08:33.752Z,28.07
2022-10-20T20:11:02.045Z,38.95
2022-10-20T20:13:29.215Z,32.42
2022-10-20T20:15:56.130Z,29.67
2022-10-20T20:18:23.153Z,31.10
2022-10-20T20:20:50.130Z,26.30
2022-10-20T20:23:22.500Z,31.20
2022-10-20T20:25:52.807Z,24.83
2022-10-20T20:28:19.707Z,28.30
2022-10-20T20:31:01.777Z,29.83
2022-10-20T20:33:29.511Z,28.73
2022-10-20T20:35:58.015Z,34.00
2022-10-20T20:38:25.090Z,31.70
2022-10-20T20:40:52.839Z,27.20
2022-10-20T20:43:20.365Z,24.97
2022-10-20T20:45:47.190Z,25.90
2022-10-20T20:48:14.040Z,30.92
2022-10-20T20:50:40.932Z,29.02
2022-10-20T20:53:07.867Z,29.95
2022-10-20T20:55:34.697Z,25.55
2022-10-20T20:58:01.521Z,32.67
2022-10-20T21:00:28.384Z,27.10
2022-10-20T21:05:27.823Z,27.70
2022-10-20T21:07:54.738Z,29.38
2022-10-20T21:10:21.611Z,27.17
2022-10-20T21:12:48.426Z,25.58
2022-10-20T21:15:15.520Z,26.17
2022-10-20T21:17:42.343Z,30.42
2022-10-20T21:20:09.655Z,25.92
2022-10-20T21:22:36.614Z,39.58
2022-10-20T21:25:03.831Z,39.03
2022-10-20T21:27:30.820Z,42.55
2022-10-20T21:29:57.670Z,37.50
2022-10-20T21:32:24.565Z,43.63
2022-10-20T21:34:51.503Z,47.80
2022-10-20T21:37:18.339Z,51.77
2022-10-20T21:39:45.238Z,44.58
2022-10-20T21:42:12.047Z,37.67
2022-10-20T21:44:38.838Z,38.40
2022-10-20T21:47:05.706Z,31.60
2022-10-20T21:49:33.740Z,34.92
2022-10-20T21:52:00.564Z,29.73
2022-10-20T21:54:28.860Z,31.25
2022-10-20T21:56:56.635Z,34.35
2022-10-20T21:59:31.107Z,31.58
2022-10-20T22:02:00.799Z,30.77
2022-10-20T22:04:29.174Z,29.20
2022-10-20T22:06:56.498Z,26.58
2022-10-20T22:09:23.692Z,30.42
2022-10-20T22:11:55.137Z,29.33
2022-10-20T22:14:22.754Z,31.20
2022-10-20T22:16:49.632Z,27.45
2022-10-20T22:19:21.993Z,24.92
2022-10-20T22:21:50.281Z,29.73
2022-10-20T22:24:18.801Z,27.00
2022-10-20T22:26:46.449Z,27.05
2022-10-20T22:29:13.546Z,26.48
2022-10-20T22:31:41.296Z,31.08
2022-10-20T22:34:09.505Z,26.08
2022-10-20T22:36:37.141Z,32.20
2022-10-20T22:39:04.557Z,28.05
2022-10-20T22:41:31.363Z,27.50
2022-10-20T22:43:58.288Z,27.90
2022-10-20T22:46:25.188Z,24.07
2022-10-20T22:48:52.075Z,26.27
2022-10-20T22:51:18.999Z,28.63
2022-10-20T22:53:45.875Z,29.05
2022-10-20T22:56:15.655Z,31.50
2022-10-20T22:58:43.152Z,24.95
2022-10-20T23:01:16.134Z,26.23
2022-10-20T23:03:43.655Z,24.63
2022-10-20T23:06:13.529Z,23.95
2022-10-20T23:08:43.259Z,28.92
2022-10-20T23:11:10.931Z,29.17
2022-10-20T23:13:37.804Z,26.85
2022-10-20T23:16:05.280Z,23.50
2022-10-20T23:18:32.386Z,29.05
2022-10-20T23:20:59.201Z,30.48
2022-10-20T23:23:26.256Z,29.80
2022-10-20T23:25:53.075Z,33.97
2022-10-20T23:28:20.604Z,30.83
2022-10-20T23:30:47.575Z,32.22
2022-10-20T23:33:14.665Z,27.73
2022-10-20T23:35:41.494Z,30.73
2022-10-20T23:38:10.046Z,28.38
2022-10-20T23:40:37.265Z,31.30
2022-10-20T23:43:04.599Z,34.55
2022-10-20T23:45:34.058Z,30.75
2022-10-20T23:48:03.853Z,33.22
2022-10-20T23:50:30.745Z,29.58
2022-10-20T23:52:57.516Z,35.83
2022-10-20T23:55:24.322Z,33.40
2022-10-20T23:57:51.314Z,29.90
